createdAt,value
2022-08-31T00:00:10.321Z,16.62
2022-08-31T00:02:57.171Z,16.47
2022-08-31T00:05:24.102Z,16.39
2022-08-31T00:07:52.723Z,16.52
2022-08-31T00:10:22.275Z,16.53
2022-08-31T00:13:01.150Z,16.13
2022-08-31T00:15:30.330Z,16.36
2022-08-31T00:17:58.138Z,16.41
2022-08-31T00:20:34.360Z,16.08
2022-08-31T00:23:07.065Z,16.09
2022-08-31T00:25:34.945Z,16.27
2022-08-31T00:28:02.602Z,16.31
2022-08-31T00:30:30.126Z,16.07
2022-08-31T00:32:58.599Z,16.03
2022-08-31T00:35:28.215Z,15.96
2022-08-31T00:37:55.241Z,15.92
2022-08-31T00:40:23.132Z,15.93
2022-08-31T00:42:50.139Z,15.90
2022-08-31T00:45:17.083Z,16.08
2022-08-31T00:47:44.354Z,16.11
2022-08-31T00:50:14.530Z,16.04
2022-08-31T00:52:46.988Z,15.98
2022-08-31T00:55:18.056Z,15.81
2022-08-31T00:57:48.225Z,15.91
2022-08-31T01:00:19.447Z,15.85
2022-08-31T01:02:47.402Z,15.81
2022-08-31T01:05:15.570Z,15.63
2022-08-31T01:07:44.123Z,15.57
2022-08-31T01:10:11.111Z,15.58
2022-08-31T01:12:38.497Z,15.58
2022-08-31T01:15:08.654Z,15.67
2022-08-31T01:17:36.714Z,15.59
2022-08-31T01:20:12.832Z,15.65
2022-08-31T01:23:04.710Z,15.56
2022-08-31T01:25:33.589Z,15.51
2022-08-31T01:28:04.744Z,15.63
2022-08-31T01:30:32.797Z,15.57
2022-08-31T01:33:00.278Z,15.52
2022-08-31T01:35:28.161Z,15.50
2022-08-31T01:37:57.128Z,15.44
2022-08-31T01:40:55.644Z,15.38
2022-08-31T01:43:23.521Z,15.30
2022-08-31T01:45:51.949Z,15.29
2022-08-31T01:48:21.727Z,15.24
2022-08-31T01:50:49.264Z,15.15
2022-08-31T01:53:16.795Z,15.13
2022-08-31T01:55:43.905Z,15.12
2022-08-31T01:58:11.099Z,15.04
2022-08-31T02:00:56.932Z,14.99
2022-08-31T02:03:24.276Z,15.00
2022-08-31T02:08:19.029Z,14.68
2022-08-31T02:10:46.639Z,14.59
2022-08-31T02:13:14.040Z,14.54
2022-08-31T02:15:41.108Z,14.51
2022-08-31T02:18:08.513Z,14.59
2022-08-31T02:20:39.252Z,14.42
2022-08-31T02:23:06.231Z,14.45
2022-08-31T02:25:33.411Z,14.29
2022-08-31T02:28:02.314Z,14.28
2022-08-31T02:30:29.333Z,14.27
2022-08-31T02:32:57.515Z,14.32
2022-08-31T02:35:24.567Z,14.30
2022-08-31T02:37:51.784Z,14.24
2022-08-31T02:40:18.779Z,14.23
2022-08-31T02:42:52.192Z,14.18
2022-08-31T02:45:24.602Z,14.17
2022-08-31T02:47:54.234Z,14.16
2022-08-31T02:50:28.345Z,14.15
2022-08-31T02:52:56.835Z,14.08
2022-08-31T02:55:25.627Z,14.06
2022-08-31T02:57:53.525Z,13.99
2022-08-31T03:00:22.926Z,13.93
2022-08-31T03:02:51.014Z,13.89
2022-08-31T03:05:20.981Z,13.82
2022-08-31T03:07:52.411Z,13.81
2022-08-31T03:10:22.958Z,13.77
2022-08-31T03:12:51.111Z,13.75
2022-08-31T03:15:19.579Z,13.72
2022-08-31T03:17:47.017Z,13.67
2022-08-31T03:20:15.746Z,13.69
2022-08-31T03:22:45.469Z,13.73
2022-08-31T03:25:14.084Z,13.88
2022-08-31T03:27:41.255Z,13.91
2022-08-31T03:30:11.695Z,13.95
2022-08-31T03:32:41.348Z,13.89
2022-08-31T03:35:08.958Z,13.92
2022-08-31T03:37:38.457Z,13.99
2022-08-31T03:40:06.345Z,13.97
2022-08-31T03:42:33.596Z,13.92
2022-08-31T03:45:01.235Z,13.91
2022-08-31T03:47:30.984Z,13.95
2022-08-31T03:49:58.154Z,13.93
2022-08-31T03:52:30.109Z,13.90
2022-08-31T03:55:02.345Z,13.86
2022-08-31T03:57:29.548Z,13.87
2022-08-31T04:00:00.627Z,13.64
2022-08-31T04:02:44.003Z,13.78
2022-08-31T04:05:31.566Z,13.84
2022-08-31T04:08:22.838Z,13.82
2022-08-31T04:11:14.072Z,13.58
2022-08-31T04:14:19.247Z,13.46
2022-08-31T04:17:11.095Z,13.40
2022-08-31T04:19:51.820Z,13.35
2022-08-31T04:22:40.503Z,13.35
2022-08-31T04:25:24.158Z,13.35
2022-08-31T04:27:51.055Z,13.52
2022-08-31T04:30:18.404Z,13.59
2022-08-31T04:32:45.291Z,13.58
2022-08-31T04:35:12.240Z,13.60
2022-08-31T04:37:46.353Z,13.59
2022-08-31T04:40:20.306Z,13.53
2022-08-31T04:42:52.962Z,13.47
2022-08-31T04:45:24.735Z,13.45
2022-08-31T04:47:52.602Z,13.44
2022-08-31T04:50:19.478Z,13.43
2022-08-31T04:53:07.562Z,13.37
2022-08-31T04:55:41.030Z,13.32
2022-08-31T04:58:09.772Z,13.25
2022-08-31T05:00:37.821Z,13.27
2022-08-31T05:03:23.570Z,13.25
2022-08-31T05:05:53.845Z,13.23
2022-08-31T05:08:20.960Z,13.24
2022-08-31T05:10:48.657Z,13.34
2022-08-31T05:13:15.783Z,13.36
2022-08-31T05:15:44.193Z,13.33
2022-08-31T05:18:14.850Z,13.28
2022-08-31T05:20:48.806Z,13.32
2022-08-31T05:23:15.753Z,13.36
2022-08-31T05:25:44.962Z,13.37
2022-08-31T05:28:12.628Z,13.37
2022-08-31T05:30:43.898Z,13.39
2022-08-31T05:33:21.859Z,13.46
2022-08-31T05:35:48.808Z,13.62
2022-08-31T05:38:15.650Z,13.73
2022-08-31T05:40:42.556Z,13.85
2022-08-31T05:43:10.045Z,13.94
2022-08-31T05:45:36.913Z,14.04
2022-08-31T05:48:05.097Z,14.14
2022-08-31T05:50:34.748Z,14.25
2022-08-31T05:53:03.062Z,14.34
2022-08-31T05:55:31.425Z,14.46
2022-08-31T05:57:58.666Z,14.60
2022-08-31T06:00:25.574Z,14.75
2022-08-31T06:03:04.106Z,14.87
2022-08-31T06:05:31.152Z,14.91
2022-08-31T06:07:58.903Z,14.95
2022-08-31T06:10:27.544Z,15.00
2022-08-31T06:12:54.382Z,15.09
2022-08-31T06:15:21.243Z,15.18
2022-08-31T06:17:48.585Z,15.28
2022-08-31T06:20:18.028Z,15.39
2022-08-31T06:22:46.783Z,15.53
2022-08-31T06:25:23.814Z,15.70
2022-08-31T06:27:51.855Z,15.85
2022-08-31T06:30:20.676Z,16.05
2022-08-31T06:32:48.465Z,16.19
2022-08-31T06:35:22.487Z,16.32
2022-08-31T06:38:01.348Z,16.41
2022-08-31T06:40:59.670Z,16.39
2022-08-31T06:43:47.180Z,16.53
2022-08-31T06:46:23.949Z,16.39
2022-08-31T06:49:10.392Z,16.40
2022-08-31T06:51:38.398Z,16.52
2022-08-31T06:54:27.850Z,16.61
2022-08-31T06:57:15.188Z,16.67
2022-08-31T07:00:12.179Z,16.79
2022-08-31T07:02:54.753Z,16.84
2022-08-31T07:05:25.710Z,16.99
2022-08-31T07:07:54.904Z,17.08
2022-08-31T07:10:21.974Z,17.13
2022-08-31T07:12:48.856Z,17.23
2022-08-31T07:15:16.558Z,17.28
2022-08-31T07:17:43.583Z,17.34
2022-08-31T07:20:11.554Z,17.54
2022-08-31T07:22:39.038Z,17.45
2022-08-31T07:25:26.832Z,17.54
2022-08-31T07:27:55.574Z,17.70
2022-08-31T07:30:23.158Z,17.85
2022-08-31T07:32:51.234Z,17.79
2022-08-31T07:35:24.487Z,17.82
2022-08-31T07:38:35.562Z,17.91
2022-08-31T07:41:28.135Z,18.25
2022-08-31T07:43:59.498Z,18.06
2022-08-31T07:46:30.349Z,18.10
2022-08-31T07:48:59.131Z,18.25
2022-08-31T07:51:46.496Z,18.35
2022-08-31T07:54:32.292Z,18.40
2022-08-31T07:57:18.931Z,18.48
2022-08-31T07:59:47.343Z,18.50
2022-08-31T08:02:17.412Z,18.59
2022-08-31T08:04:45.237Z,18.60
2022-08-31T08:07:33.958Z,18.71
2022-08-31T08:10:24.394Z,18.89
2022-08-31T08:13:06.324Z,18.94
2022-08-31T08:15:51.894Z,19.01
2022-08-31T08:18:38.237Z,19.07
2022-08-31T08:21:06.113Z,19.09
2022-08-31T08:23:33.316Z,19.09
2022-08-31T08:26:21.587Z,19.31
2022-08-31T08:29:09.330Z,19.34
2022-08-31T08:31:46.408Z,19.28
2022-08-31T08:34:13.378Z,19.33
2022-08-31T08:36:40.690Z,19.31
2022-08-31T08:39:09.970Z,19.43
2022-08-31T08:41:44.609Z,19.46
2022-08-31T08:44:18.108Z,19.64
2022-08-31T08:46:51.842Z,19.83
2022-08-31T08:49:31.281Z,19.83
2022-08-31T08:52:11.540Z,19.88
2022-08-31T08:54:47.192Z,19.86
2022-08-31T08:57:18.470Z,19.83
2022-08-31T08:59:49.617Z,19.97
2022-08-31T09:02:35.097Z,19.96
2022-08-31T09:05:06.368Z,20.10
2022-08-31T09:08:18.113Z,20.02
2022-08-31T09:11:20.566Z,20.01
2022-08-31T09:13:57.894Z,20.18
2022-08-31T09:16:33.540Z,20.10
2022-08-31T09:19:06.597Z,20.00
2022-08-31T09:21:44.270Z,20.13
2022-08-31T09:24:15.833Z,20.39
2022-08-31T09:27:18.839Z,20.58
2022-08-31T09:29:47.222Z,20.74
2022-08-31T09:32:26.246Z,20.72
2022-08-31T09:35:01.513Z,20.52
2022-08-31T09:37:46.380Z,20.62
2022-08-31T09:40:24.318Z,20.91
2022-08-31T09:43:13.942Z,21.19
2022-08-31T09:45:55.840Z,21.37
2022-08-31T09:48:59.524Z,21.85
2022-08-31T09:51:37.098Z,21.84
2022-08-31T09:54:46.652Z,21.90
2022-08-31T09:57:14.202Z,22.08
2022-08-31T09:59:48.163Z,22.32
2022-08-31T10:02:23.213Z,22.27
2022-08-31T10:04:59.322Z,22.22
2022-08-31T10:07:49.108Z,22.34
2022-08-31T10:10:31.724Z,22.11
2022-08-31T10:13:10.487Z,22.02
2022-08-31T10:15:48.513Z,22.03
2022-08-31T10:18:22.474Z,21.77
2022-08-31T10:20:57.022Z,21.58
2022-08-31T10:23:34.969Z,21.71
2022-08-31T10:26:13.139Z,21.89
2022-08-31T10:28:50.997Z,21.85
2022-08-31T10:31:24.127Z,21.61
2022-08-31T10:34:18.992Z,21.64
2022-08-31T10:36:50.764Z,21.66
2022-08-31T10:39:36.410Z,21.74
2022-08-31T10:42:07.245Z,21.78
2022-08-31T10:44:57.078Z,22.06
2022-08-31T10:47:34.050Z,22.41
2022-08-31T10:50:03.651Z,22.46
2022-08-31T10:52:46.224Z,22.46
2022-08-31T10:55:48.815Z,22.61
2022-08-31T10:58:31.362Z,22.87
2022-08-31T11:01:17.446Z,22.85
2022-08-31T11:04:14.944Z,22.92
2022-08-31T11:07:06.796Z,23.46
2022-08-31T11:10:12.600Z,23.85
2022-08-31T11:12:46.620Z,23.42
2022-08-31T11:15:55.406Z,23.33
2022-08-31T11:18:40.339Z,22.72
2022-08-31T11:21:35.875Z,22.49
2022-08-31T11:24:21.696Z,22.17
2022-08-31T11:27:03.440Z,22.09
2022-08-31T11:29:46.482Z,21.91
2022-08-31T11:32:25.001Z,21.96
2022-08-31T11:34:55.386Z,21.85
2022-08-31T11:37:52.426Z,21.99
2022-08-31T11:40:44.924Z,22.18
2022-08-31T11:43:35.473Z,22.59
2022-08-31T11:46:26.524Z,22.87
2022-08-31T11:48:54.672Z,22.73
2022-08-31T11:51:45.059Z,22.50
2022-08-31T11:54:26.470Z,22.42
2022-08-31T11:56:56.792Z,22.31
2022-08-31T11:59:34.289Z,22.28
2022-08-31T12:02:21.779Z,22.66
2022-08-31T12:04:52.320Z,22.88
2022-08-31T12:07:26.653Z,22.97
2022-08-31T12:09:59.859Z,22.86
2022-08-31T12:12:32.575Z,22.75
2022-08-31T12:14:59.516Z,22.42
2022-08-31T12:17:36.837Z,22.64
2022-08-31T12:20:23.924Z,22.83
2022-08-31T12:23:38.099Z,22.45
2022-08-31T12:26:45.390Z,22.71
2022-08-31T12:29:26.203Z,22.76
2022-08-31T12:32:14.331Z,22.85
2022-08-31T12:34:48.868Z,22.89
2022-08-31T12:37:24.535Z,22.86
2022-08-31T12:40:10.441Z,22.80
2022-08-31T12:42:54.177Z,22.94
2022-08-31T12:45:48.397Z,22.52
2022-08-31T12:48:24.561Z,22.59
2022-08-31T12:51:25.778Z,22.69
2022-08-31T12:54:08.317Z,22.83
2022-08-31T12:56:56.311Z,23.05
2022-08-31T13:00:00.137Z,23.22
2022-08-31T13:02:33.060Z,23.19
2022-08-31T13:05:01.910Z,23.54
2022-08-31T13:07:31.969Z,23.58
2022-08-31T13:10:21.928Z,23.41
2022-08-31T13:12:53.964Z,23.29
2022-08-31T13:15:43.019Z,23.43
2022-08-31T13:18:16.643Z,23.35
2022-08-31T13:20:44.944Z,23.53
2022-08-31T13:23:15.309Z,23.55
2022-08-31T13:25:42.712Z,23.63
2022-08-31T13:28:15.511Z,23.60
2022-08-31T13:30:53.691Z,23.54
2022-08-31T13:33:27.302Z,23.33
2022-08-31T13:36:09.755Z,23.31
2022-08-31T13:38:47.083Z,23.35
2022-08-31T13:41:30.281Z,23.52
2022-08-31T13:44:01.517Z,23.72
2022-08-31T13:46:43.184Z,23.69
2022-08-31T13:49:31.140Z,23.55
2022-08-31T13:51:58.996Z,23.51
2022-08-31T13:54:32.396Z,23.53
2022-08-31T13:57:19.794Z,23.37
2022-08-31T13:59:47.841Z,23.18
2022-08-31T14:02:15.600Z,22.65
2022-08-31T14:04:48.769Z,22.66
2022-08-31T14:07:21.741Z,22.89
2022-08-31T14:10:12.252Z,23.17
2022-08-31T14:12:46.463Z,22.96
2022-08-31T14:15:17.721Z,22.95
2022-08-31T14:21:23.502Z,23.20
2022-08-31T14:23:53.387Z,23.18
2022-08-31T14:26:28.264Z,23.07
2022-08-31T14:29:00.358Z,22.79
2022-08-31T14:31:55.298Z,22.91
2022-08-31T14:34:30.428Z,22.94
2022-08-31T14:37:02.640Z,22.99
2022-08-31T14:39:47.287Z,22.97
2022-08-31T14:42:25.691Z,23.02
2022-08-31T14:44:57.889Z,22.72
2022-08-31T14:47:30.547Z,22.81
2022-08-31T14:49:59.725Z,23.04
2022-08-31T14:52:28.554Z,22.96
2022-08-31T14:55:00.720Z,22.75
2022-08-31T14:57:27.965Z,22.88
2022-08-31T14:59:57.852Z,22.99
2022-08-31T15:02:26.787Z,22.74
2022-08-31T15:04:59.738Z,22.61
2022-08-31T15:07:32.360Z,22.69
2022-08-31T15:09:59.650Z,22.99
2022-08-31T15:12:27.196Z,22.99
2022-08-31T15:15:00.059Z,23.05
2022-08-31T15:17:33.990Z,23.04
2022-08-31T15:20:03.412Z,23.17
2022-08-31T15:22:31.383Z,22.98
2022-08-31T15:24:58.999Z,23.03
2022-08-31T15:27:29.014Z,22.81
2022-08-31T15:29:57.251Z,22.60
2022-08-31T15:32:24.337Z,22.42
2022-08-31T15:34:58.182Z,22.51
2022-08-31T15:37:31.894Z,22.57
2022-08-31T15:40:02.077Z,22.60
2022-08-31T15:42:31.662Z,22.33
2022-08-31T15:44:59.023Z,22.31
2022-08-31T15:47:50.329Z,22.38
2022-08-31T15:50:19.633Z,22.41
2022-08-31T15:52:51.076Z,22.24
2022-08-31T15:55:23.674Z,22.32
2022-08-31T15:57:54.367Z,22.41
2022-08-31T16:00:26.727Z,22.39
2022-08-31T16:02:57.537Z,22.34
2022-08-31T16:05:28.548Z,22.35
2022-08-31T16:07:57.366Z,22.27
2022-08-31T16:10:27.591Z,22.35
2022-08-31T16:12:54.549Z,22.33
2022-08-31T16:15:24.713Z,22.29
2022-08-31T16:17:52.053Z,22.24
2022-08-31T16:20:19.592Z,22.17
2022-08-31T16:22:46.770Z,22.11
2022-08-31T16:25:14.788Z,21.93
2022-08-31T16:27:43.485Z,21.88
2022-08-31T16:30:12.169Z,21.89
2022-08-31T16:32:39.012Z,21.93
2022-08-31T16:35:06.912Z,21.89
2022-08-31T16:37:34.135Z,21.79
2022-08-31T16:40:00.992Z,21.81
2022-08-31T16:42:28.349Z,21.87
2022-08-31T16:44:59.748Z,21.81
2022-08-31T16:47:29.325Z,21.52
2022-08-31T16:49:58.432Z,21.33
2022-08-31T16:52:30.908Z,21.23
2022-08-31T16:54:57.953Z,21.17
2022-08-31T16:57:28.476Z,21.05
2022-08-31T16:59:59.400Z,21.00
2022-08-31T17:02:27.131Z,20.88
2022-08-31T17:04:54.796Z,20.68
2022-08-31T17:07:24.386Z,20.63
2022-08-31T17:09:56.754Z,20.55
2022-08-31T17:12:26.300Z,20.49
2022-08-31T17:14:53.736Z,20.43
2022-08-31T17:17:26.124Z,20.33
2022-08-31T17:19:55.782Z,20.27
2022-08-31T17:22:31.739Z,20.16
2022-08-31T17:25:04.874Z,20.07
2022-08-31T17:27:34.229Z,20.08
2022-08-31T17:30:05.598Z,20.00
2022-08-31T17:32:34.994Z,19.93
2022-08-31T17:35:03.867Z,19.87
2022-08-31T17:37:36.718Z,19.83
2022-08-31T17:40:08.261Z,19.81
2022-08-31T17:42:36.031Z,19.74
2022-08-31T17:45:06.087Z,19.73
2022-08-31T17:47:33.620Z,19.66
2022-08-31T17:50:00.947Z,19.58
2022-08-31T17:52:28.447Z,19.51
2022-08-31T17:54:55.403Z,19.49
2022-08-31T17:57:25.210Z,19.47
2022-08-31T17:59:53.466Z,19.41
2022-08-31T18:02:27.719Z,19.35
2022-08-31T18:04:55.046Z,19.27
2022-08-31T18:07:22.458Z,19.19
2022-08-31T18:09:49.285Z,19.16
2022-08-31T18:12:18.350Z,19.05
2022-08-31T18:14:45.320Z,18.98
2022-08-31T18:17:16.216Z,18.95
2022-08-31T18:19:45.199Z,18.92
2022-08-31T18:22:14.250Z,18.85
2022-08-31T18:24:42.480Z,18.78
2022-08-31T18:27:11.602Z,18.69
2022-08-31T18:29:39.534Z,18.66
2022-08-31T18:32:08.119Z,18.57
2022-08-31T18:34:40.667Z,18.49
2022-08-31T18:37:09.302Z,18.41
2022-08-31T18:39:59.622Z,18.37
2022-08-31T18:42:46.901Z,18.31
2022-08-31T18:45:18.795Z,18.15
2022-08-31T18:48:20.856Z,18.17
2022-08-31T18:50:42.561Z,18.10
2022-08-31T18:53:11.008Z,18.05
2022-08-31T18:55:42.777Z,17.99
2022-08-31T18:58:09.794Z,17.99
2022-08-31T19:00:37.553Z,17.98
2022-08-31T19:03:04.834Z,17.93
2022-08-31T19:05:32.769Z,17.90
2022-08-31T19:08:00.621Z,17.88
2022-08-31T19:10:28.603Z,17.81
2022-08-31T19:12:55.932Z,17.80
2022-08-31T19:15:25.518Z,17.72
2022-08-31T19:18:02.939Z,17.70
2022-08-31T19:20:30.195Z,17.63
2022-08-31T19:22:57.339Z,17.55
2022-08-31T19:25:24.722Z,17.52
2022-08-31T19:27:52.697Z,17.51
2022-08-31T19:30:23.286Z,17.41
2022-08-31T19:32:54.458Z,17.38
2022-08-31T19:35:21.512Z,17.37
2022-08-31T19:37:51.796Z,17.36
2022-08-31T19:40:19.701Z,17.31
2022-08-31T19:43:42.947Z,17.27
2022-08-31T19:45:44.977Z,17.29
2022-08-31T19:48:12.950Z,17.28
2022-08-31T19:50:41.788Z,17.24
2022-08-31T19:53:13.517Z,17.21
2022-08-31T19:55:50.344Z,17.16
2022-08-31T19:58:19.655Z,17.14
2022-08-31T20:00:48.339Z,17.11
2022-08-31T20:03:16.433Z,17.09
2022-08-31T20:05:43.552Z,17.06
2022-08-31T20:08:11.833Z,17.01
2022-08-31T20:10:46.447Z,17.00
2022-08-31T20:13:13.542Z,17.05
2022-08-31T20:15:43.191Z,17.07
2022-08-31T20:18:12.148Z,17.05
2022-08-31T20:20:48.459Z,17.01
2022-08-31T20:23:18.077Z,16.99
2022-08-31T20:25:49.276Z,16.90
2022-08-31T20:28:16.975Z,16.90
2022-08-31T20:30:44.296Z,16.87
2022-08-31T20:33:11.842Z,16.82
2022-08-31T20:35:47.769Z,16.80
2022-08-31T20:38:17.087Z,16.73
2022-08-31T20:40:47.469Z,16.79
2022-08-31T20:43:15.170Z,16.84
2022-08-31T20:45:42.407Z,16.82
2022-08-31T20:48:29.376Z,16.83
2022-08-31T20:50:57.079Z,16.80
2022-08-31T20:53:26.369Z,16.77
2022-08-31T20:56:17.543Z,16.70
2022-08-31T20:58:48.417Z,16.72
2022-08-31T21:01:16.235Z,16.72
2022-08-31T21:03:43.434Z,16.71
2022-08-31T21:06:13.970Z,16.74
2022-08-31T21:08:42.604Z,16.67
2022-08-31T21:11:22.338Z,16.59
2022-08-31T21:13:50.483Z,16.58
2022-08-31T21:16:19.521Z,16.56
2022-08-31T21:18:49.767Z,16.61
2022-08-31T21:21:17.654Z,16.60
2022-08-31T21:23:46.171Z,16.56
2022-08-31T21:26:20.049Z,16.58
2022-08-31T21:28:52.441Z,16.58
2022-08-31T21:31:27.596Z,16.56
2022-08-31T21:34:01.839Z,16.47
2022-08-31T21:36:33.010Z,16.46
2022-08-31T21:39:00.825Z,16.46
2022-08-31T21:41:29.180Z,16.41
2022-08-31T21:43:59.174Z,16.40
2022-08-31T21:46:28.862Z,16.35
2022-08-31T21:48:58.497Z,16.36
2022-08-31T21:51:28.801Z,16.29
2022-08-31T21:53:59.647Z,16.24
2022-08-31T21:56:30.210Z,16.29
2022-08-31T21:58:58.283Z,16.26
2022-08-31T22:01:29.695Z,16.21
2022-08-31T22:03:59.180Z,16.20
2022-08-31T22:06:31.238Z,16.19
2022-08-31T22:09:01.679Z,16.17
2022-08-31T22:11:31.403Z,16.14
2022-08-31T22:13:59.627Z,16.08
2022-08-31T22:16:27.801Z,16.05
2022-08-31T22:19:02.160Z,16.00
2022-08-31T22:21:34.491Z,15.94
2022-08-31T22:24:06.265Z,15.87
2022-08-31T22:26:38.493Z,15.83
2022-08-31T22:29:07.771Z,15.87
2022-08-31T22:31:37.398Z,15.79
2022-08-31T22:34:07.319Z,15.82
2022-08-31T22:36:34.815Z,15.82
2022-08-31T22:39:11.527Z,15.78
2022-08-31T22:41:42.185Z,15.75
2022-08-31T22:44:12.214Z,15.67
2022-08-31T22:46:39.989Z,15.61
2022-08-31T22:49:07.801Z,15.54
2022-08-31T22:51:36.685Z,15.56
2022-08-31T22:54:04.637Z,15.52
2022-08-31T22:56:33.650Z,15.52
2022-08-31T22:59:03.907Z,15.53
2022-08-31T23:01:37.649Z,15.54
2022-08-31T23:04:07.122Z,15.51
2022-08-31T23:06:36.736Z,15.48
2022-08-31T23:09:05.983Z,15.52
2022-08-31T23:11:33.260Z,15.55
2022-08-31T23:14:05.340Z,15.55
2022-08-31T23:16:37.698Z,15.47
2022-08-31T23:19:16.801Z,15.50
2022-08-31T23:21:56.821Z,15.51
2022-08-31T23:24:51.341Z,15.47
2022-08-31T23:27:21.561Z,15.47
2022-08-31T23:29:51.757Z,15.48
2022-08-31T23:32:20.961Z,15.42
2022-08-31T23:34:50.739Z,15.38
2022-08-31T23:37:18.773Z,15.38
2022-08-31T23:39:46.581Z,15.35
2022-08-31T23:42:16.629Z,15.32
2022-08-31T23:44:45.787Z,15.34
2022-08-31T23:47:25.863Z,15.37
2022-08-31T23:49:53.558Z,15.41
2022-08-31T23:52:23.850Z,15.48
2022-08-31T23:54:54.147Z,15.51
2022-08-31T23:57:32.521Z,15.54
